sensor_id;sensor_type;location;lat;lon;timestamp;pressure;altitude;pressure_sealevel;temperature;humidity
56400;BME280;42298;53.638;9.876;2023-01-10T00:01:25;100441.75;;;11.33;68.21
56400;BME280;42298;53.638;9.876;2023-01-10T00:03:50;100448.72;;;11.30;68.03
56400;BME280;42298;53.638;9.876;2023-01-10T00:06:16;100443.06;;;11.27;67.89
56400;BME280;42298;53.638;9.876;2023-01-10T00:08:42;100451.97;;;11.24;68.36
56400;BME280;42298;53.638;9.876;2023-01-10T00:11:07;100451.47;;;11.22;68.53
56400;BME280;42298;53.638;9.876;2023-01-10T00:13:55;100465.44;;;11.25;68.26
56400;BME280;42298;53.638;9.876;2023-01-10T00:16:21;100464.44;;;11.21;68.47
56400;BME280;42298;53.638;9.876;2023-01-10T00:18:47;100465.38;;;11.17;68.24
56400;BME280;42298;53.638;9.876;2023-01-10T00:21:12;100474.78;;;11.16;68.38
56400;BME280;42298;53.638;9.876;2023-01-10T00:23:39;100484.69;;;11.17;68.46
56400;BME280;42298;53.638;9.876;2023-01-10T00:26:04;100491.03;;;11.26;68.49
56400;BME280;42298;53.638;9.876;2023-01-10T00:28:30;100482.44;;;11.27;67.87
56400;BME280;42298;53.638;9.876;2023-01-10T00:30:58;100475.63;;;11.16;68.25
56400;BME280;42298;53.638;9.876;2023-01-10T00:33:31;100482.09;;;11.12;68.26
56400;BME280;42298;53.638;9.876;2023-01-10T00:35:58;100481.09;;;11.08;68.17
56400;BME280;42298;53.638;9.876;2023-01-10T00:38:23;100502.66;;;11.06;69.00
56400;BME280;42298;53.638;9.876;2023-01-10T00:40:49;100503.81;;;11.13;68.67
56400;BME280;42298;53.638;9.876;2023-01-10T00:43:14;100503.81;;;11.13;68.24
56400;BME280;42298;53.638;9.876;2023-01-10T00:45:58;100513.19;;;11.12;68.21
56400;BME280;42298;53.638;9.876;2023-01-10T00:48:23;100503.13;;;11.08;68.32
56400;BME280;42298;53.638;9.876;2023-01-10T00:50:48;100509.91;;;11.02;68.45
56400;BME280;42298;53.638;9.876;2023-01-10T00:53:14;100518.19;;;11.02;68.13
56400;BME280;42298;53.638;9.876;2023-01-10T00:55:41;100520.47;;;11.00;68.26
56400;BME280;42298;53.638;9.876;2023-01-10T00:58:06;100528.03;;;10.94;67.96
56400;BME280;42298;53.638;9.876;2023-01-10T01:00:37;100522.19;;;10.87;68.24
56400;BME280;42298;53.638;9.876;2023-01-10T01:03:03;100529.25;;;10.80;68.17
56400;BME280;42298;53.638;9.876;2023-01-10T01:05:29;100535.91;;;10.79;68.02
56400;BME280;42298;53.638;9.876;2023-01-10T01:07:54;100547.25;;;10.55;68.29
56400;BME280;42298;53.638;9.876;2023-01-10T01:10:20;100548.72;;;10.53;68.27
56400;BME280;42298;53.638;9.876;2023-01-10T01:12:51;100561.28;;;10.45;68.19
56400;BME280;42298;53.638;9.876;2023-01-10T01:15:17;100553.38;;;10.52;67.76
56400;BME280;42298;53.638;9.876;2023-01-10T01:17:42;100554.59;;;10.38;68.15
56400;BME280;42298;53.638;9.876;2023-01-10T01:20:08;100564.28;;;10.35;67.89
56400;BME280;42298;53.638;9.876;2023-01-10T01:22:34;100584.03;;;10.37;67.61
56400;BME280;42298;53.638;9.876;2023-01-10T01:24:59;100597.03;;;10.37;67.90
56400;BME280;42298;53.638;9.876;2023-01-10T01:27:25;100609.13;;;10.36;67.69
56400;BME280;42298;53.638;9.876;2023-01-10T01:29:50;100616.09;;;10.33;68.20
56400;BME280;42298;53.638;9.876;2023-01-10T01:32:15;100611.41;;;10.34;68.37
56400;BME280;42298;53.638;9.876;2023-01-10T01:34:40;100607.25;;;10.23;68.64
56400;BME280;42298;53.638;9.876;2023-01-10T01:37:06;100613.25;;;10.25;68.93
56400;BME280;42298;53.638;9.876;2023-01-10T01:39:31;100629.53;;;10.35;68.77
56400;BME280;42298;53.638;9.876;2023-01-10T01:41:56;100633.59;;;10.37;69.02
56400;BME280;42298;53.638;9.876;2023-01-10T01:44:23;100646.69;;;10.54;68.68
56400;BME280;42298;53.638;9.876;2023-01-10T01:47:05;100637.00;;;10.56;68.26
56400;BME280;42298;53.638;9.876;2023-01-10T01:49:35;100649.22;;;10.64;68.17
56400;BME280;42298;53.638;9.876;2023-01-10T01:52:07;100649.38;;;10.67;67.88
56400;BME280;42298;53.638;9.876;2023-01-10T01:54:34;100652.09;;;10.59;68.27
56400;BME280;42298;53.638;9.876;2023-01-10T01:57:04;100660.78;;;10.52;68.47
56400;BME280;42298;53.638;9.876;2023-01-10T01:59:40;100664.34;;;10.53;68.49
56400;BME280;42298;53.638;9.876;2023-01-10T02:02:17;100664.03;;;10.54;67.90
56400;BME280;42298;53.638;9.876;2023-01-10T02:04:56;100668.84;;;10.49;68.11
56400;BME280;42298;53.638;9.876;2023-01-10T02:07:25;100682.50;;;10.54;68.02
56400;BME280;42298;53.638;9.876;2023-01-10T02:09:56;100675.34;;;10.53;68.34
56400;BME280;42298;53.638;9.876;2023-01-10T02:12:24;100682.78;;;10.52;68.48
56400;BME280;42298;53.638;9.876;2023-01-10T02:14:52;100695.78;;;10.52;68.46
56400;BME280;42298;53.638;9.876;2023-01-10T02:17:18;100689.44;;;10.51;68.41
56400;BME280;42298;53.638;9.876;2023-01-10T02:30:50;100725.22;;;10.51;68.25
56400;BME280;42298;53.638;9.876;2023-01-10T02:33:29;100719.00;;;10.59;67.91
56400;BME280;42298;53.638;9.876;2023-01-10T02:41:15;100724.31;;;10.56;67.60
56400;BME280;42298;53.638;9.876;2023-01-10T02:43:50;100724.09;;;10.52;68.29
56400;BME280;42298;53.638;9.876;2023-01-10T02:46:25;100728.06;;;10.60;67.89
56400;BME280;42298;53.638;9.876;2023-01-10T02:48:52;100735.53;;;10.59;67.97
56400;BME280;42298;53.638;9.876;2023-01-10T02:51:21;100734.69;;;10.59;67.96
56400;BME280;42298;53.638;9.876;2023-01-10T02:53:51;100743.69;;;10.51;67.44
56400;BME280;42298;53.638;9.876;2023-01-10T02:56:40;100739.63;;;10.48;68.01
56400;BME280;42298;53.638;9.876;2023-01-10T03:01:59;100750.63;;;10.48;67.77
56400;BME280;42298;53.638;9.876;2023-01-10T03:04:40;100751.56;;;10.44;68.05
56400;BME280;42298;53.638;9.876;2023-01-10T03:07:23;100749.03;;;10.34;67.71
56400;BME280;42298;53.638;9.876;2023-01-10T03:09:55;100749.34;;;10.32;68.32
56400;BME280;42298;53.638;9.876;2023-01-10T03:12:34;100759.44;;;10.37;68.27
56400;BME280;42298;53.638;9.876;2023-01-10T03:15:03;100756.97;;;10.35;68.24
56400;BME280;42298;53.638;9.876;2023-01-10T03:17:30;100761.06;;;10.24;68.29
56400;BME280;42298;53.638;9.876;2023-01-10T03:19:59;100763.41;;;10.31;68.41
56400;BME280;42298;53.638;9.876;2023-01-10T03:22:28;100769.22;;;10.29;68.75
56400;BME280;42298;53.638;9.876;2023-01-10T03:24:57;100765.34;;;10.30;68.27
56400;BME280;42298;53.638;9.876;2023-01-10T03:32:40;100762.81;;;10.07;67.91
56400;BME280;42298;53.638;9.876;2023-01-10T03:35:06;100776.00;;;10.05;67.97
56400;BME280;42298;53.638;9.876;2023-01-10T03:41:00;100788.34;;;9.94;68.02
56400;BME280;42298;53.638;9.876;2023-01-10T03:43:38;100801.19;;;9.85;68.17
56400;BME280;42298;53.638;9.876;2023-01-10T03:46:38;100802.88;;;9.81;67.96
56400;BME280;42298;53.638;9.876;2023-01-10T03:49:07;100803.91;;;9.71;68.22
56400;BME280;42298;53.638;9.876;2023-01-10T03:51:33;100816.59;;;9.67;68.10
56400;BME280;42298;53.638;9.876;2023-01-10T03:54:01;100832.09;;;9.63;68.82
56400;BME280;42298;53.638;9.876;2023-01-10T03:56:27;100832.47;;;9.56;68.96
56400;BME280;42298;53.638;9.876;2023-01-10T03:58:52;100833.06;;;9.53;68.59
56400;BME280;42298;53.638;9.876;2023-01-10T04:01:18;100842.81;;;9.46;69.21
56400;BME280;42298;53.638;9.876;2023-01-10T04:03:43;100858.94;;;9.52;69.17
56400;BME280;42298;53.638;9.876;2023-01-10T04:06:09;100854.25;;;9.53;68.92
56400;BME280;42298;53.638;9.876;2023-01-10T04:08:34;100855.59;;;9.55;68.58
56400;BME280;42298;53.638;9.876;2023-01-10T04:10:59;100867.81;;;9.63;69.10
56400;BME280;42298;53.638;9.876;2023-01-10T04:13:25;100862.09;;;9.59;68.88
56400;BME280;42298;53.638;9.876;2023-01-10T04:15:50;100865.69;;;9.60;69.15
56400;BME280;42298;53.638;9.876;2023-01-10T04:18:16;100876.06;;;9.63;69.33
56400;BME280;42298;53.638;9.876;2023-01-10T04:20:41;100880.75;;;9.62;69.65
56400;BME280;42298;53.638;9.876;2023-01-10T04:23:06;100883.00;;;9.60;69.08
56400;BME280;42298;53.638;9.876;2023-01-10T04:25:31;100877.50;;;9.60;69.22
56400;BME280;42298;53.638;9.876;2023-01-10T04:27:57;100880.06;;;9.70;68.98
56400;BME280;42298;53.638;9.876;2023-01-10T04:30:22;100882.09;;;9.65;68.70
56400;BME280;42298;53.638;9.876;2023-01-10T04:32:47;100901.78;;;9.72;69.29
56400;BME280;42298;53.638;9.876;2023-01-10T04:35:13;100902.91;;;9.71;69.49
56400;BME280;42298;53.638;9.876;2023-01-10T04:37:38;100908.31;;;9.76;68.97
56400;BME280;42298;53.638;9.876;2023-01-10T04:40:04;100897.09;;;9.73;69.42
56400;BME280;42298;53.638;9.876;2023-01-10T04:42:29;100904.81;;;9.70;69.40
56400;BME280;42298;53.638;9.876;2023-01-10T04:44:54;100912.47;;;9.73;68.86
56400;BME280;42298;53.638;9.876;2023-01-10T04:47:20;100915.47;;;9.77;69.00
56400;BME280;42298;53.638;9.876;2023-01-10T04:49:45;100924.44;;;9.83;69.76
56400;BME280;42298;53.638;9.876;2023-01-10T04:52:10;100928.31;;;9.82;69.71
56400;BME280;42298;53.638;9.876;2023-01-10T04:54:36;100922.81;;;9.82;69.44
56400;BME280;42298;53.638;9.876;2023-01-10T04:57:01;100942.91;;;9.96;69.30
56400;BME280;42298;53.638;9.876;2023-01-10T04:59:26;100943.34;;;10.03;68.76
56400;BME280;42298;53.638;9.876;2023-01-10T05:01:51;100953.75;;;10.06;69.07
56400;BME280;42298;53.638;9.876;2023-01-10T05:04:17;100951.00;;;10.06;68.63
56400;BME280;42298;53.638;9.876;2023-01-10T05:06:42;100950.44;;;10.09;68.40
56400;BME280;42298;53.638;9.876;2023-01-10T05:09:08;100954.28;;;10.08;68.92
56400;BME280;42298;53.638;9.876;2023-01-10T05:11:33;100955.75;;;10.19;68.82
56400;BME280;42298;53.638;9.876;2023-01-10T05:13:58;100957.91;;;10.22;68.51
56400;BME280;42298;53.638;9.876;2023-01-10T05:16:24;100960.34;;;10.23;68.77
56400;BME280;42298;53.638;9.876;2023-01-10T05:18:50;100960.34;;;10.23;68.57
56400;BME280;42298;53.638;9.876;2023-01-10T05:21:15;100977.59;;;10.29;68.10
56400;BME280;42298;53.638;9.876;2023-01-10T05:23:41;100984.72;;;10.16;68.09
56400;BME280;42298;53.638;9.876;2023-01-10T05:26:09;100975.09;;;10.14;68.60
56400;BME280;42298;53.638;9.876;2023-01-10T05:28:35;100988.97;;;10.09;68.24
56400;BME280;42298;53.638;9.876;2023-01-10T05:31:01;100992.28;;;10.06;68.44
56400;BME280;42298;53.638;9.876;2023-01-10T05:33:27;100989.25;;;10.07;68.92
56400;BME280;42298;53.638;9.876;2023-01-10T05:35:52;100995.94;;;10.01;69.10
56400;BME280;42298;53.638;9.876;2023-01-10T05:38:18;101014.38;;;10.01;68.86
56400;BME280;42298;53.638;9.876;2023-01-10T05:40:43;101008.34;;;9.99;68.91
56400;BME280;42298;53.638;9.876;2023-01-10T05:43:08;101021.72;;;10.05;68.67
56400;BME280;42298;53.638;9.876;2023-01-10T05:45:36;101029.44;;;10.03;68.42
56400;BME280;42298;53.638;9.876;2023-01-10T05:48:01;101027.09;;;9.97;68.87
56400;BME280;42298;53.638;9.876;2023-01-10T05:50:26;101034.81;;;9.95;67.84
56400;BME280;42298;53.638;9.876;2023-01-10T05:52:52;101026.78;;;9.80;68.74
56400;BME280;42298;53.638;9.876;2023-01-10T05:55:17;101034.00;;;9.76;68.47
56400;BME280;42298;53.638;9.876;2023-01-10T05:57:42;101030.50;;;9.70;68.21
56400;BME280;42298;53.638;9.876;2023-01-10T06:00:08;101042.09;;;9.67;67.88
56400;BME280;42298;53.638;9.876;2023-01-10T06:02:34;101046.91;;;9.56;68.80
56400;BME280;42298;53.638;9.876;2023-01-10T06:04:59;101048.69;;;9.47;68.92
56400;BME280;42298;53.638;9.876;2023-01-10T06:07:25;101059.91;;;9.51;69.22
56400;BME280;42298;53.638;9.876;2023-01-10T06:09:50;101062.44;;;9.47;68.71
56400;BME280;42298;53.638;9.876;2023-01-10T06:12:16;101059.19;;;9.45;68.37
56400;BME280;42298;53.638;9.876;2023-01-10T06:14:43;101059.06;;;9.32;68.51
56400;BME280;42298;53.638;9.876;2023-01-10T06:17:08;101065.50;;;9.22;68.92
56400;BME280;42298;53.638;9.876;2023-01-10T06:19:35;101070.69;;;9.24;69.13
56400;BME280;42298;53.638;9.876;2023-01-10T06:22:02;101084.44;;;9.24;68.66
56400;BME280;42298;53.638;9.876;2023-01-10T06:24:27;101090.22;;;9.22;68.92
56400;BME280;42298;53.638;9.876;2023-01-10T06:26:52;101095.81;;;9.17;68.94
56400;BME280;42298;53.638;9.876;2023-01-10T06:29:18;101093.63;;;9.14;68.86
56400;BME280;42298;53.638;9.876;2023-01-10T06:31:43;101101.34;;;9.12;69.32
56400;BME280;42298;53.638;9.876;2023-01-10T06:34:08;101089.59;;;9.07;69.38
56400;BME280;42298;53.638;9.876;2023-01-10T06:36:33;101109.00;;;9.15;69.50
56400;BME280;42298;53.638;9.876;2023-01-10T06:38:59;101104.84;;;9.18;69.10
56400;BME280;42298;53.638;9.876;2023-01-10T06:41:24;101107.84;;;9.21;69.24
56400;BME280;42298;53.638;9.876;2023-01-10T06:43:49;101115.31;;;9.16;69.29
56400;BME280;42298;53.638;9.876;2023-01-10T06:46:16;101122.16;;;9.18;69.17
56400;BME280;42298;53.638;9.876;2023-01-10T06:48:44;101126.38;;;9.11;68.69
56400;BME280;42298;53.638;9.876;2023-01-10T06:51:11;101134.31;;;9.12;69.14
56400;BME280;42298;53.638;9.876;2023-01-10T06:53:36;101138.66;;;9.18;69.23
56400;BME280;42298;53.638;9.876;2023-01-10T06:56:02;101131.56;;;9.12;68.62
56400;BME280;42298;53.638;9.876;2023-01-10T06:58:28;101137.06;;;9.12;68.72
56400;BME280;42298;53.638;9.876;2023-01-10T07:00:54;101145.31;;;9.12;69.05
56400;BME280;42298;53.638;9.876;2023-01-10T07:03:20;101142.09;;;9.05;68.89
56400;BME280;42298;53.638;9.876;2023-01-10T07:05:45;101143.19;;;9.04;69.06
56400;BME280;42298;53.638;9.876;2023-01-10T07:08:10;101155.28;;;9.03;69.36
56400;BME280;42298;53.638;9.876;2023-01-10T07:10:39;101154.97;;;9.10;69.05
56400;BME280;42298;53.638;9.876;2023-01-10T07:13:04;101148.16;;;9.02;69.11
56400;BME280;42298;53.638;9.876;2023-01-10T07:15:29;101160.75;;;9.08;68.69
56400;BME280;42298;53.638;9.876;2023-01-10T07:17:56;101161.22;;;9.15;69.36
56400;BME280;42298;53.638;9.876;2023-01-10T07:20:22;101146.72;;;9.10;69.35
56400;BME280;42298;53.638;9.876;2023-01-10T07:22:54;101149.09;;;9.16;69.54
56400;BME280;42298;53.638;9.876;2023-01-10T07:25:22;101153.50;;;9.17;69.50
56400;BME280;42298;53.638;9.876;2023-01-10T07:27:47;101161.16;;;9.20;69.36
56400;BME280;42298;53.638;9.876;2023-01-10T07:30:12;101166.09;;;9.23;69.14
56400;BME280;42298;53.638;9.876;2023-01-10T07:32:38;101163.13;;;9.15;68.69
56400;BME280;42298;53.638;9.876;2023-01-10T07:35:04;101162.22;;;9.24;68.96
56400;BME280;42298;53.638;9.876;2023-01-10T07:37:29;101172.84;;;9.31;68.46
56400;BME280;42298;53.638;9.876;2023-01-10T07:39:54;101170.09;;;9.31;67.99
56400;BME280;42298;53.638;9.876;2023-01-10T07:42:20;101168.13;;;9.36;68.24
56400;BME280;42298;53.638;9.876;2023-01-10T07:44:45;101172.06;;;9.30;67.61
56400;BME280;42298;53.638;9.876;2023-01-10T07:47:11;101176.47;;;9.26;68.59
56400;BME280;42298;53.638;9.876;2023-01-10T07:49:36;101187.41;;;9.31;68.44
56400;BME280;42298;53.638;9.876;2023-01-10T07:52:01;101188.53;;;9.30;68.41
56400;BME280;42298;53.638;9.876;2023-01-10T07:54:27;101173.38;;;9.33;67.99
56400;BME280;42298;53.638;9.876;2023-01-10T07:56:52;101179.94;;;9.37;68.80
56400;BME280;42298;53.638;9.876;2023-01-10T07:59:17;101180.81;;;9.32;69.00
56400;BME280;42298;53.638;9.876;2023-01-10T08:01:42;101189.84;;;9.38;68.99
56400;BME280;42298;53.638;9.876;2023-01-10T08:04:08;101185.91;;;9.44;69.28
56400;BME280;42298;53.638;9.876;2023-01-10T08:06:33;101192.22;;;9.44;69.02
56400;BME280;42298;53.638;9.876;2023-01-10T08:08:59;101182.59;;;9.47;69.52
56400;BME280;42298;53.638;9.876;2023-01-10T08:11:24;101197.63;;;9.54;68.68
56400;BME280;42298;53.638;9.876;2023-01-10T08:13:49;101193.81;;;9.50;69.18
56400;BME280;42298;53.638;9.876;2023-01-10T08:16:15;101195.94;;;9.58;68.69
56400;BME280;42298;53.638;9.876;2023-01-10T08:18:40;101205.88;;;9.54;68.72
56400;BME280;42298;53.638;9.876;2023-01-10T08:21:07;101224.19;;;9.64;68.75
56400;BME280;42298;53.638;9.876;2023-01-10T08:23:33;101218.03;;;9.72;68.68
56400;BME280;42298;53.638;9.876;2023-01-10T08:25:59;101220.81;;;9.72;68.64
56400;BME280;42298;53.638;9.876;2023-01-10T08:28:24;101223.25;;;9.73;68.69
56400;BME280;42298;53.638;9.876;2023-01-10T08:30:50;101218.88;;;9.73;69.00
56400;BME280;42298;53.638;9.876;2023-01-10T08:33:19;101211.66;;;9.77;68.56
56400;BME280;42298;53.638;9.876;2023-01-10T08:35:44;101212.50;;;9.77;68.84
56400;BME280;42298;53.638;9.876;2023-01-10T08:38:10;101216.25;;;9.86;68.46
56400;BME280;42298;53.638;9.876;2023-01-10T08:40:36;101224.66;;;9.95;69.21
56400;BME280;42298;53.638;9.876;2023-01-10T08:43:04;101225.59;;;9.85;68.70
56400;BME280;42298;53.638;9.876;2023-01-10T08:45:30;101235.72;;;9.90;69.03
56400;BME280;42298;53.638;9.876;2023-01-10T08:47:55;101247.66;;;10.04;68.60
56400;BME280;42298;53.638;9.876;2023-01-10T08:50:27;101257.53;;;10.05;68.78
56400;BME280;42298;53.638;9.876;2023-01-10T08:52:52;101264.66;;;10.11;68.78
56400;BME280;42298;53.638;9.876;2023-01-10T08:55:18;101255.22;;;10.17;68.53
56400;BME280;42298;53.638;9.876;2023-01-10T08:57:44;101254.13;;;10.18;68.47
56400;BME280;42298;53.638;9.876;2023-01-10T09:00:10;101241.03;;;10.28;68.22
56400;BME280;42298;53.638;9.876;2023-01-10T09:02:38;101235.47;;;10.33;68.10
56400;BME280;42298;53.638;9.876;2023-01-10T09:05:03;101222.28;;;10.30;68.19
56400;BME280;42298;53.638;9.876;2023-01-10T09:07:29;101215.25;;;10.43;67.98
56400;BME280;42298;53.638;9.876;2023-01-10T09:09:54;101213.53;;;10.47;67.93
56400;BME280;42298;53.638;9.876;2023-01-10T09:12:19;101216.94;;;10.57;67.23
56400;BME280;42298;53.638;9.876;2023-01-10T09:15:17;101213.59;;;10.42;67.40
56400;BME280;42298;53.638;9.876;2023-01-10T09:17:44;101222.75;;;10.56;67.23
56400;BME280;42298;53.638;9.876;2023-01-10T09:20:09;101212.88;;;10.55;66.99
56400;BME280;42298;53.638;9.876;2023-01-10T09:22:38;101223.66;;;10.70;67.31
56400;BME280;42298;53.638;9.876;2023-01-10T09:25:04;101225.03;;;10.67;66.69
56400;BME280;42298;53.638;9.876;2023-01-10T09:27:29;101223.72;;;10.65;66.85
56400;BME280;42298;53.638;9.876;2023-01-10T09:29:55;101233.78;;;10.74;66.41
56400;BME280;42298;53.638;9.876;2023-01-10T09:32:20;101247.09;;;10.67;66.49
56400;BME280;42298;53.638;9.876;2023-01-10T09:34:45;101266.84;;;10.74;66.93
56400;BME280;42298;53.638;9.876;2023-01-10T09:37:10;101274.81;;;10.76;66.54
56400;BME280;42298;53.638;9.876;2023-01-10T09:39:36;101277.56;;;10.76;66.64
56400;BME280;42298;53.638;9.876;2023-01-10T09:42:22;101285.97;;;10.84;66.75
56400;BME280;42298;53.638;9.876;2023-01-10T09:45:14;101293.09;;;10.85;66.87
56400;BME280;42298;53.638;9.876;2023-01-10T09:47:56;101297.88;;;10.80;66.79
56400;BME280;42298;53.638;9.876;2023-01-10T09:53:27;101313.06;;;10.96;66.71
56400;BME280;42298;53.638;9.876;2023-01-10T09:55:56;101302.78;;;11.01;66.14
56400;BME280;42298;53.638;9.876;2023-01-10T09:58:28;101296.47;;;11.01;67.16
56400;BME280;42298;53.638;9.876;2023-01-10T10:01:01;101303.47;;;10.93;66.29
56400;BME280;42298;53.638;9.876;2023-01-10T10:03:40;101309.63;;;11.04;67.02
56400;BME280;42298;53.638;9.876;2023-01-10T10:06:10;101308.31;;;11.01;66.34
56400;BME280;42298;53.638;9.876;2023-01-10T10:08:37;101305.00;;;10.81;66.22
56400;BME280;42298;53.638;9.876;2023-01-10T10:11:14;101313.16;;;10.91;66.78
56400;BME280;42298;53.638;9.876;2023-01-10T10:22:07;101327.38;;;10.98;66.32
56400;BME280;42298;53.638;9.876;2023-01-10T10:30:46;101306.16;;;10.98;66.11
56400;BME280;42298;53.638;9.876;2023-01-10T10:36:14;101304.13;;;11.04;66.08
56400;BME280;42298;53.638;9.876;2023-01-10T10:38:44;101300.75;;;10.88;66.03
56400;BME280;42298;53.638;9.876;2023-01-10T10:41:17;101315.06;;;10.90;66.49
56400;BME280;42298;53.638;9.876;2023-01-10T10:43:47;101312.03;;;10.92;66.79
56400;BME280;42298;53.638;9.876;2023-01-10T10:46:15;101330.94;;;10.98;66.20
56400;BME280;42298;53.638;9.876;2023-01-10T10:48:55;101327.13;;;11.13;65.77
56400;BME280;42298;53.638;9.876;2023-01-10T10:51:31;101319.75;;;11.08;65.54
56400;BME280;42298;53.638;9.876;2023-01-10T10:53:58;101318.88;;;11.13;66.05
56400;BME280;42298;53.638;9.876;2023-01-10T10:56:25;101316.84;;;11.18;65.83
56400;BME280;42298;53.638;9.876;2023-01-10T10:58:55;101324.09;;;11.14;66.08
56400;BME280;42298;53.638;9.876;2023-01-10T11:01:22;101324.69;;;11.11;65.11
56400;BME280;42298;53.638;9.876;2023-01-10T11:03:57;101323.19;;;11.19;65.79
56400;BME280;42298;53.638;9.876;2023-01-10T11:06:26;101327.88;;;11.18;65.65
56400;BME280;42298;53.638;9.876;2023-01-10T11:08:55;101317.31;;;11.25;65.94
56400;BME280;42298;53.638;9.876;2023-01-10T11:11:48;101330.31;;;11.38;65.82
56400;BME280;42298;53.638;9.876;2023-01-10T11:14:15;101335.53;;;11.40;65.39
56400;BME280;42298;53.638;9.876;2023-01-10T11:20:02;101348.78;;;11.38;65.32
56400;BME280;42298;53.638;9.876;2023-01-10T11:22:58;101341.13;;;11.35;65.06
56400;BME280;42298;53.638;9.876;2023-01-10T11:25:23;101339.66;;;11.24;65.61
56400;BME280;42298;53.638;9.876;2023-01-10T11:27:52;101330.56;;;11.23;65.23
56400;BME280;42298;53.638;9.876;2023-01-10T11:30:21;101332.91;;;11.30;65.74
56400;BME280;42298;53.638;9.876;2023-01-10T11:33:00;101334.47;;;11.36;65.41
56400;BME280;42298;53.638;9.876;2023-01-10T11:35:35;101338.34;;;11.35;65.50
56400;BME280;42298;53.638;9.876;2023-01-10T11:38:16;101336.50;;;11.30;65.76
56400;BME280;42298;53.638;9.876;2023-01-10T11:41:00;101349.47;;;11.30;65.64
56400;BME280;42298;53.638;9.876;2023-01-10T11:43:38;101344.41;;;11.37;65.72
56400;BME280;42298;53.638;9.876;2023-01-10T11:46:18;101338.44;;;11.30;65.43
56400;BME280;42298;53.638;9.876;2023-01-10T11:48:52;101343.66;;;11.31;65.80
56400;BME280;42298;53.638;9.876;2023-01-10T11:51:25;101341.53;;;11.42;65.94
56400;BME280;42298;53.638;9.876;2023-01-10T11:54:03;101334.94;;;11.43;66.12
56400;BME280;42298;53.638;9.876;2023-01-10T11:56:31;101341.69;;;11.50;65.75
56400;BME280;42298;53.638;9.876;2023-01-10T11:58:59;101339.53;;;11.47;65.76
56400;BME280;42298;53.638;9.876;2023-01-10T12:04:39;101330.56;;;11.55;65.22
56400;BME280;42298;53.638;9.876;2023-01-10T12:07:16;101321.78;;;11.53;65.46
56400;BME280;42298;53.638;9.876;2023-01-10T12:10:18;101312.91;;;11.56;65.10
56400;BME280;42298;53.638;9.876;2023-01-10T12:12:55;101329.53;;;11.70;65.06
56400;BME280;42298;53.638;9.876;2023-01-10T12:15:34;101323.56;;;11.63;65.10
56400;BME280;42298;53.638;9.876;2023-01-10T12:18:13;101325.53;;;11.63;65.42
56400;BME280;42298;53.638;9.876;2023-01-10T12:20:50;101327.38;;;11.67;65.83
56400;BME280;42298;53.638;9.876;2023-01-10T12:23:19;101315.84;;;11.60;65.64
56400;BME280;42298;53.638;9.876;2023-01-10T12:25:49;101304.09;;;11.54;64.71
56400;BME280;42298;53.638;9.876;2023-01-10T12:28:17;101316.75;;;11.74;64.98
56400;BME280;42298;53.638;9.876;2023-01-10T12:30:46;101333.22;;;11.79;64.35
56400;BME280;42298;53.638;9.876;2023-01-10T12:33:20;101333.13;;;11.84;65.05
56400;BME280;42298;53.638;9.876;2023-01-10T12:35:51;101324.63;;;11.67;64.55
56400;BME280;42298;53.638;9.876;2023-01-10T12:41:50;101328.66;;;11.88;64.83
56400;BME280;42298;53.638;9.876;2023-01-10T12:44:54;101316.09;;;11.96;64.83
56400;BME280;42298;53.638;9.876;2023-01-10T12:55:40;101318.44;;;12.16;64.07
56400;BME280;42298;53.638;9.876;2023-01-10T12:58:08;101292.78;;;11.88;63.76
56400;BME280;42298;53.638;9.876;2023-01-10T13:01:04;101299.31;;;11.92;64.17
56400;BME280;42298;53.638;9.876;2023-01-10T13:03:32;101318.25;;;12.12;64.08
56400;BME280;42298;53.638;9.876;2023-01-10T13:06:02;101320.38;;;11.88;63.68
56400;BME280;42298;53.638;9.876;2023-01-10T13:08:34;101303.91;;;11.83;63.57
56400;BME280;42298;53.638;9.876;2023-01-10T13:11:24;101308.22;;;12.03;63.83
56400;BME280;42298;53.638;9.876;2023-01-10T13:14:13;101305.84;;;12.10;63.62
56400;BME280;42298;53.638;9.876;2023-01-10T13:16:46;101320.41;;;12.29;63.51
56400;BME280;42298;53.638;9.876;2023-01-10T13:19:22;101323.78;;;12.26;62.43
56400;BME280;42298;53.638;9.876;2023-01-10T13:21:54;101322.84;;;12.17;63.65
56400;BME280;42298;53.638;9.876;2023-01-10T13:24:36;101314.34;;;12.27;62.84
56400;BME280;42298;53.638;9.876;2023-01-10T13:27:05;101317.03;;;12.18;62.80
56400;BME280;42298;53.638;9.876;2023-01-10T13:29:45;101317.53;;;12.20;62.65
56400;BME280;42298;53.638;9.876;2023-01-10T13:32:27;101304.63;;;12.02;62.15
56400;BME280;42298;53.638;9.876;2023-01-10T13:34:54;101278.34;;;11.91;62.95
56400;BME280;42298;53.638;9.876;2023-01-10T13:37:24;101299.94;;;12.03;63.20
56400;BME280;42298;53.638;9.876;2023-01-10T13:39:57;101318.94;;;12.04;62.49
56400;BME280;42298;53.638;9.876;2023-01-10T13:42:38;101323.44;;;12.00;62.47
56400;BME280;42298;53.638;9.876;2023-01-10T13:45:32;101321.09;;;11.94;62.98
56400;BME280;42298;53.638;9.876;2023-01-10T13:48:01;101331.13;;;12.03;63.27
56400;BME280;42298;53.638;9.876;2023-01-10T14:00:54;101340.28;;;11.85;63.38
56400;BME280;42298;53.638;9.876;2023-01-10T14:03:56;101332.03;;;11.85;63.02
56400;BME280;42298;53.638;9.876;2023-01-10T14:09:00;101323.91;;;11.75;63.12
56400;BME280;42298;53.638;9.876;2023-01-10T14:11:29;101337.63;;;11.80;63.62
56400;BME280;42298;53.638;9.876;2023-01-10T14:14:01;101340.50;;;11.89;63.04
56400;BME280;42298;53.638;9.876;2023-01-10T14:16:32;101337.34;;;11.95;63.07
56400;BME280;42298;53.638;9.876;2023-01-10T14:18:59;101336.09;;;11.88;63.21
56400;BME280;42298;53.638;9.876;2023-01-10T14:21:28;101337.94;;;11.92;63.26
56400;BME280;42298;53.638;9.876;2023-01-10T14:27:47;101322.34;;;11.69;62.99